createdAt,value
2023-01-17T00:08:21.405Z,9.80
2023-01-17T00:28:41.133Z,11.87
2023-01-17T01:14:23.774Z,16.00
2023-01-17T01:35:03.554Z,16.10
2023-01-17T01:39:25.573Z,16.27
2023-01-17T02:04:49.068Z,14.60
2023-01-17T02:40:24.665Z,15.30
2023-01-17T03:05:45.854Z,14.77
2023-01-17T03:46:41.106Z,14.87
2023-01-17T04:07:12.575Z,13.67
2023-01-17T04:27:14.336Z,14.17
2023-01-17T04:47:46.897Z,12.93
2023-01-17T05:18:12.489Z,13.07
2023-01-17T05:37:57.829Z,14.17
2023-01-17T05:58:25.919Z,13.47
2023-01-17T06:44:14.349Z,13.37
2023-01-17T07:04:23.129Z,13.87
2023-01-17T07:29:54.850Z,14.90
2023-01-17T08:35:25.499Z,12.70
2023-01-17T08:56:03.318Z,9.83
2023-01-17T09:16:32.622Z,9.63
2023-01-17T09:46:26.875Z,8.27
2023-01-17T10:12:03.603Z,7.80
2023-01-17T10:57:52.493Z,8.83
2023-01-17T11:18:20.637Z,9.37
2023-01-17T11:58:44.347Z,10.10
2023-01-17T12:33:40.832Z,10.50
2023-01-17T13:35:14.472Z,12.33
2023-01-17T14:10:44.216Z,12.73
2023-01-17T14:40:34.019Z,13.83
2023-01-17T15:01:22.201Z,14.43
2023-01-17T15:26:12.554Z,17.40
2023-01-17T15:46:44.267Z,17.10
2023-01-17T16:07:21.761Z,20.17
2023-01-17T16:42:38.421Z,21.27
2023-01-17T17:17:57.126Z,24.20
2023-01-17T17:53:12.246Z,24.00
2023-01-17T18:23:43.520Z,26.53
2023-01-17T18:54:07.512Z,45.93
2023-01-17T19:14:49.563Z,42.17
2023-01-17T19:30:02.785Z,50.47
2023-01-17T20:05:40.930Z,57.43
2023-01-17T20:10:00.450Z,55.67
2023-01-17T20:30:53.048Z,57.87
2023-01-17T21:01:21.373Z,58.60
2023-01-17T21:56:41.016Z,59.73
2023-01-17T22:32:34.092Z,59.73
2023-01-17T23:02:59.480Z,63.87
2023-01-17T23:32:55.228Z,51.63
2023-01-17T23:53:16.876Z,60.70
